This is the latest recevied weather packets stored in our database for station/object KD2DXJ. If no packets are shown the sender has not sent any weather packets the latest 10 day(s).
| Time | Temp. | Humidity | Pressure | Rain* | Wind** | Luminosity | Snow |
|---|---|---|---|---|---|---|---|
| 1777752040 | 7.22° C | 69% | 1012.1 hPa | 0 mm | - | 47 W/m² | - |
| 1777751738 | 7.78° C | 66% | 1012.1 hPa | 0 mm | - | 66 W/m² | - |
| 1777751433 | 7.78° C | 64% | 1012 hPa | 0 mm | - | 100 W/m² | - |
| 1777751130 | 8.33° C | 65% | 1012.1 hPa | 0 mm | - | 165 W/m² | - |
| 1777750826 | 7.78° C | 62% | 1012.3 hPa | 0 mm | - | 149 W/m² | - |
| 1777750524 | 7.78° C | 63% | 1012.3 hPa | 0 mm | - | 116 W/m² | - |
| 1777750221 | 7.78° C | 61% | 1012.4 hPa | 0 mm | - | 132 W/m² | - |
| 1777749916 | 8.89° C | 63% | 1012.3 hPa | 0 mm | - | 171 W/m² | - |
| 1777749614 | 9.44° C | 59% | 1012.2 hPa | 0 mm | - | 232 W/m² | - |
| 1777749311 | 10° C | 61% | 1012.3 hPa | 0 mm | - | 699 W/m² | - |
| 1777749008 | 10.56° C | 56% | 1012.3 hPa | 0 mm | - | 696 W/m² | - |
| 1777748706 | 10° C | 57% | 1012.4 hPa | 0 mm | - | 720 W/m² | - |
| 1777748402 | 9.44° C | 61% | 1012.3 hPa | 0 mm | - | 642 W/m² | - |
| 1777748098 | 8.33° C | 62% | 1012.3 hPa | 0 mm | - | 381 W/m² | - |
| 1777747794 | 7.78° C | 64% | 1012.3 hPa | 0 mm | - | 222 W/m² | - |
| 1777747489 | 7.78° C | 64% | 1012.3 hPa | 0 mm | - | 140 W/m² | - |
| 1777747187 | 7.78° C | 63% | 1012.3 hPa | 0 mm | - | 119 W/m² | - |
| 1777746883 | 8.33° C | 65% | 1012.3 hPa | 0 mm | - | 161 W/m² | - |
| 1777746578 | 8.33° C | 63% | 1012.3 hPa | 0 mm | - | 283 W/m² | - |
| 1777746273 | 8.33° C | 62% | 1012.3 hPa | 0 mm | - | 346 W/m² | - |
| 1777745970 | 7.78° C | 66% | 1012.3 hPa | 0 mm | - | 234 W/m² | - |
| 1777745669 | 8.33° C | 61% | 1012.2 hPa | 0 mm | - | 313 W/m² | - |
| 1777745367 | 8.89° C | 63% | 1012.3 hPa | 0 mm | - | 316 W/m² | - |
| 1777745064 | 8.89° C | 64% | 1012.4 hPa | 0 mm | - | 847 W/m² | - |
| 1777744760 | 7.78° C | 67% | 1012.2 hPa | 0 mm | - | 469 W/m² | - |
* Rain latest hour (hover to see other rain measurements)
** Current wind speed in m/s (hover to see current wind gust speed)